Portada
METAR-TAF:

METAR-TAF

Aeropuertos :

Aeropuerto de Granada

Granada, España

latitud: 37-11N, longitud: 003-47W, altitud: 567 m

Observación

El informe se hizo hace 20 minutos, a las 03:30 UTC
Viento 1 kt con dirección variable
Temperatura 17°C
Humedad 72%
Presión 1019 hPa
Visibilidad 10 km o más

METAR: LEGR 200330Z AUTO VRB01KT 9999 NCD 17/12 Q1019

Hora: 05:50 (03:50 UTC)

Pronóstico

El informe se hizo hace 1 hora y 50 minutos, a las 02:00 UTC
Pronóstico válido del 20 a las 03 UTC al 21 a las 03 UTC
Viento 3 kt con dirección variable
Visibilidad 10 km o más
sin nubes por debajo de 1500 m y sin presencia de cumulonimbus.
Evolucionando progresivamente
del 20 a las 14 UTC al 20 a las 16 UTC
Viento 12 kt del sur-sureste
Evolucionando progresivamente
del 20 a las 20 UTC al 20 a las 22 UTC
Viento 3 kt con dirección variable

TAF: LEGR 200200Z 2003/2103 VRB03KT CAVOK TX35/2015Z TN15/2005Z BECMG 2014/2016 16012KT BECMG 2020/2022 VRB03KT

Observaciones y pronósticos meteorológicos de más de 4000 aeropuertos (mensajes METAR y TAF).

Los puntos amarillos y rojos representan las estaciones disponibles.

Ponga el ratón en el punto deseado para ver el nombre de la estación.

Haga clic para ver las observaciones y los pronósticos meteorológicos.

Para cambiar el mapa : haga clic en los botones verdes con una cruz de color negro para hacer un zoom, en el botón verde con un guión para alejar o en las flechas verdes para mapas adyacentes.


METAR-TAF: